createdAt,value
2018-08-28T00:00:22.821Z,16.50
2018-08-28T00:02:54.438Z,16.40
2018-08-28T00:05:26.394Z,16.50
2018-08-28T00:07:58.200Z,16.40
2018-08-28T00:10:30.115Z,16.40
2018-08-28T00:13:01.783Z,16.40
2018-08-28T00:15:33.634Z,16.30
2018-08-28T00:18:05.341Z,16.20
2018-08-28T00:20:37.141Z,16.20
2018-08-28T00:23:09.060Z,16.10
2018-08-28T00:25:40.866Z,16.10
2018-08-28T00:28:12.739Z,16.00
2018-08-28T00:30:44.525Z,16.00
2018-08-28T00:33:16.286Z,16.00
2018-08-28T00:35:48.012Z,15.90
2018-08-28T00:38:19.694Z,15.90
2018-08-28T00:40:51.349Z,15.80
2018-08-28T00:43:23.078Z,15.80
2018-08-28T00:45:54.761Z,15.70
2018-08-28T00:48:26.561Z,15.70
2018-08-28T00:50:58.359Z,15.70
2018-08-28T00:53:30.039Z,15.80
2018-08-28T00:56:01.762Z,15.80
2018-08-28T00:58:33.562Z,15.80
2018-08-28T01:01:05.502Z,15.80
2018-08-28T01:03:37.351Z,15.80
2018-08-28T01:06:09.113Z,15.80
2018-08-28T01:08:40.925Z,15.90
2018-08-28T01:11:12.753Z,15.90
2018-08-28T01:13:44.401Z,15.90
2018-08-28T01:16:16.349Z,15.80
2018-08-28T01:18:48.054Z,15.80
2018-08-28T01:21:19.768Z,15.80
2018-08-28T01:23:51.663Z,15.80
2018-08-28T01:26:23.489Z,15.80
2018-08-28T01:28:55.356Z,15.80
2018-08-28T01:31:27.212Z,15.90
2018-08-28T01:33:59.199Z,15.80
2018-08-28T01:36:31.140Z,15.80
2018-08-28T01:39:03.114Z,15.70
2018-08-28T01:41:34.911Z,15.80
2018-08-28T01:44:06.657Z,15.80
2018-08-28T01:46:38.435Z,15.80
2018-08-28T01:49:10.245Z,15.90
2018-08-28T01:51:42.033Z,16.00
2018-08-28T01:54:13.750Z,16.00
2018-08-28T01:56:45.350Z,16.10
2018-08-28T01:59:17.090Z,16.10
2018-08-28T02:01:48.864Z,16.10
2018-08-28T02:04:20.517Z,16.10
2018-08-28T02:06:52.274Z,16.10
2018-08-28T02:09:24.311Z,16.10
2018-08-28T02:11:56.212Z,16.10
2018-08-28T02:14:27.966Z,16.10
2018-08-28T02:16:59.562Z,16.10
2018-08-28T02:19:31.376Z,16.10
2018-08-28T02:22:03.621Z,16.10
2018-08-28T02:24:35.309Z,16.10
2018-08-28T02:27:07.380Z,16.10
2018-08-28T02:29:39.262Z,16.00
2018-08-28T02:32:10.962Z,16.10
2018-08-28T02:34:42.645Z,16.10
2018-08-28T02:37:14.289Z,16.10
2018-08-28T02:39:46.037Z,16.10
2018-08-28T02:42:17.715Z,16.20
2018-08-28T02:44:49.357Z,16.20
2018-08-28T02:47:21.213Z,16.20
2018-08-28T02:49:52.884Z,16.20
2018-08-28T02:52:24.634Z,16.20
2018-08-28T02:54:56.422Z,16.20
2018-08-28T02:57:28.185Z,16.20
2018-08-28T03:00:00.007Z,16.30
2018-08-28T03:02:31.691Z,16.30
2018-08-28T03:05:03.422Z,16.30
2018-08-28T03:07:35.218Z,16.30
2018-08-28T03:10:06.913Z,16.30
2018-08-28T03:12:38.794Z,16.30
2018-08-28T03:15:10.606Z,16.30
2018-08-28T03:17:42.526Z,16.40
2018-08-28T03:20:14.316Z,16.30
2018-08-28T03:22:46.278Z,16.40
2018-08-28T03:25:17.930Z,16.40
2018-08-28T03:27:49.862Z,16.30
2018-08-28T03:30:21.782Z,16.40
2018-08-28T03:32:53.418Z,16.40
2018-08-28T03:35:25.143Z,16.40
2018-08-28T03:37:56.822Z,16.40
2018-08-28T03:40:28.665Z,16.40
2018-08-28T03:43:00.455Z,16.40
2018-08-28T03:45:32.214Z,16.40
2018-08-28T03:48:03.937Z,16.40
2018-08-28T03:50:35.722Z,16.40
2018-08-28T03:53:07.817Z,16.40
2018-08-28T03:55:39.636Z,16.40
2018-08-28T03:58:11.312Z,16.50
2018-08-28T04:00:43.070Z,16.40
2018-08-28T04:03:14.729Z,16.40
2018-08-28T04:05:46.553Z,16.30
2018-08-28T04:08:18.125Z,16.30
2018-08-28T04:10:50.182Z,16.20
2018-08-28T04:13:21.960Z,16.30
2018-08-28T04:15:53.714Z,16.20
2018-08-28T04:18:25.507Z,16.30
2018-08-28T04:20:57.215Z,16.30
2018-08-28T04:23:29.007Z,16.30
2018-08-28T04:26:00.758Z,16.30
2018-08-28T04:28:32.393Z,16.30
2018-08-28T04:31:04.195Z,16.30
2018-08-28T04:33:35.828Z,16.30
2018-08-28T04:36:07.579Z,16.40
2018-08-28T04:38:39.372Z,16.40
2018-08-28T04:41:11.209Z,16.40
2018-08-28T04:43:42.948Z,16.40
2018-08-28T04:46:14.752Z,16.40
2018-08-28T04:48:46.529Z,16.50
2018-08-28T04:51:18.245Z,16.50
2018-08-28T04:53:50.118Z,16.50
2018-08-28T04:56:21.766Z,16.50
2018-08-28T04:58:53.640Z,16.60
2018-08-28T05:01:25.407Z,16.60
2018-08-28T05:03:57.120Z,16.60
2018-08-28T05:06:28.824Z,16.70
2018-08-28T05:09:00.634Z,16.70
2018-08-28T05:11:32.305Z,16.80
2018-08-28T05:14:03.979Z,16.80
2018-08-28T05:16:35.615Z,16.90
2018-08-28T05:19:07.511Z,16.90
2018-08-28T05:21:39.466Z,17.00
2018-08-28T05:24:11.301Z,17.00
2018-08-28T05:26:43.090Z,17.00
2018-08-28T05:29:15.018Z,17.00
2018-08-28T05:31:46.684Z,17.10
2018-08-28T05:34:18.429Z,17.10
2018-08-28T05:36:50.215Z,17.20
2018-08-28T05:39:21.951Z,17.10
2018-08-28T05:41:53.628Z,17.20
2018-08-28T05:44:25.394Z,17.20
2018-08-28T05:46:57.357Z,17.20
2018-08-28T05:49:29.191Z,17.20
2018-08-28T05:52:00.996Z,17.20
2018-08-28T05:54:32.816Z,17.20
2018-08-28T05:57:04.477Z,17.20
2018-08-28T05:59:36.222Z,17.20
2018-08-28T06:02:07.997Z,17.30
2018-08-28T06:04:39.742Z,17.30
2018-08-28T06:07:11.416Z,17.30
2018-08-28T06:09:43.074Z,17.30
2018-08-28T06:12:14.863Z,17.40
2018-08-28T06:14:46.637Z,17.40
2018-08-28T06:17:18.429Z,17.50
2018-08-28T06:19:50.121Z,17.50
2018-08-28T06:22:21.853Z,17.50
2018-08-28T06:24:53.533Z,17.50
2018-08-28T06:27:25.298Z,17.50
2018-08-28T06:29:57.042Z,17.60
2018-08-28T06:32:28.771Z,17.60
2018-08-28T06:35:00.683Z,17.60
2018-08-28T06:37:32.433Z,17.60
2018-08-28T06:40:04.194Z,17.60
2018-08-28T06:42:36.070Z,17.60
2018-08-28T06:45:08.002Z,17.70
2018-08-28T06:47:39.795Z,17.70
2018-08-28T06:50:11.628Z,17.70
2018-08-28T06:52:43.489Z,17.70
2018-08-28T06:55:15.530Z,17.70
2018-08-28T06:57:47.416Z,17.70
2018-08-28T07:00:19.181Z,17.70
2018-08-28T07:02:51.045Z,17.70
2018-08-28T07:05:23.265Z,17.70
2018-08-28T07:07:55.138Z,17.60
2018-08-28T07:10:26.816Z,17.70
2018-08-28T07:12:58.764Z,17.60
2018-08-28T07:15:30.687Z,17.70
2018-08-28T07:18:02.744Z,17.80
2018-08-28T07:20:34.595Z,17.90
2018-08-28T07:23:06.515Z,18.10
2018-08-28T07:25:38.468Z,18.30
2018-08-28T07:28:10.156Z,18.40
2018-08-28T07:30:41.817Z,18.40
2018-08-28T07:33:13.690Z,18.30
2018-08-28T07:35:45.440Z,18.50
2018-08-28T07:38:17.273Z,18.50
2018-08-28T07:40:48.935Z,18.50
2018-08-28T07:43:20.703Z,18.60
2018-08-28T07:45:52.387Z,18.80
2018-08-28T07:48:24.112Z,19.00
2018-08-28T07:50:56.489Z,19.10
2018-08-28T07:53:28.291Z,19.30
2018-08-28T07:55:59.914Z,19.40
2018-08-28T07:58:31.649Z,19.40
2018-08-28T08:01:03.559Z,19.50
2018-08-28T08:03:35.379Z,19.50
2018-08-28T08:06:07.181Z,19.60
2018-08-28T08:08:38.989Z,19.70
2018-08-28T08:11:10.674Z,19.70
2018-08-28T08:13:42.422Z,19.90
2018-08-28T08:16:14.123Z,19.90
2018-08-28T08:18:46.030Z,20.00
2018-08-28T08:21:17.900Z,20.20
2018-08-28T08:23:49.653Z,20.30
2018-08-28T08:26:21.331Z,20.50
2018-08-28T08:28:53.053Z,20.60
2018-08-28T08:31:24.845Z,20.70
2018-08-28T08:33:56.740Z,20.50
2018-08-28T08:36:28.381Z,20.30
2018-08-28T08:39:00.141Z,20.10
2018-08-28T08:41:31.864Z,19.90
2018-08-28T08:44:03.532Z,19.90
2018-08-28T08:46:35.509Z,20.00
2018-08-28T08:49:07.450Z,20.20
2018-08-28T08:51:39.129Z,20.50
2018-08-28T08:54:11.017Z,20.70
2018-08-28T08:56:42.750Z,20.80
2018-08-28T08:59:14.592Z,21.10
2018-08-28T09:01:46.365Z,21.20
2018-08-28T09:04:18.018Z,21.30
2018-08-28T09:06:50.714Z,21.10
2018-08-28T09:09:22.365Z,21.10
2018-08-28T09:11:54.009Z,21.00
2018-08-28T09:14:25.770Z,20.90
2018-08-28T09:16:57.430Z,20.80
2018-08-28T09:19:29.087Z,20.80
2018-08-28T09:22:00.826Z,21.10
2018-08-28T09:24:32.488Z,21.30
2018-08-28T09:27:04.270Z,21.60
2018-08-28T09:29:36.132Z,21.80
2018-08-28T09:32:08.115Z,22.10
2018-08-28T09:34:40.040Z,22.30
2018-08-28T09:37:11.722Z,22.30
2018-08-28T09:39:43.550Z,22.20
2018-08-28T09:42:15.230Z,22.00
2018-08-28T09:44:46.967Z,21.70
2018-08-28T09:47:18.635Z,21.60
2018-08-28T09:49:50.407Z,21.50
2018-08-28T09:52:22.121Z,21.70
2018-08-28T09:54:54.003Z,21.90
2018-08-28T09:57:25.808Z,22.20
2018-08-28T09:59:57.541Z,22.40
2018-08-28T10:02:29.300Z,22.50
2018-08-28T10:05:01.048Z,22.70
2018-08-28T10:07:32.869Z,22.80
2018-08-28T10:10:04.757Z,23.10
2018-08-28T10:12:36.445Z,23.20
2018-08-28T10:15:08.438Z,23.30
2018-08-28T10:17:40.130Z,23.50
2018-08-28T10:20:12.234Z,23.50
2018-08-28T10:22:43.884Z,23.70
2018-08-28T10:25:15.726Z,23.80
2018-08-28T10:27:47.394Z,23.90
2018-08-28T10:30:19.200Z,23.70
2018-08-28T10:32:51.106Z,23.60
2018-08-28T10:35:22.788Z,23.60
2018-08-28T10:37:54.442Z,23.60
2018-08-28T10:40:26.169Z,23.60
2018-08-28T10:42:57.842Z,23.70
2018-08-28T10:45:29.686Z,23.90
2018-08-28T10:48:01.499Z,24.10
2018-08-28T10:50:33.128Z,24.20
2018-08-28T10:53:04.902Z,24.40
2018-08-28T10:55:36.550Z,24.50
2018-08-28T10:58:08.298Z,24.50
2018-08-28T11:00:40.069Z,24.50
2018-08-28T11:03:11.847Z,24.60
2018-08-28T11:05:43.477Z,24.80
2018-08-28T11:08:15.213Z,24.90
2018-08-28T11:10:46.894Z,25.10
2018-08-28T11:13:18.734Z,25.30
2018-08-28T11:15:50.405Z,25.30
2018-08-28T11:18:22.169Z,25.30
2018-08-28T11:20:53.958Z,25.40
2018-08-28T11:23:25.581Z,25.50
2018-08-28T11:25:57.330Z,25.60
2018-08-28T11:28:29.021Z,25.70
2018-08-28T11:31:00.679Z,25.70
2018-08-28T11:33:32.390Z,25.70
2018-08-28T11:36:04.181Z,25.70
2018-08-28T11:38:36.160Z,25.80
2018-08-28T11:41:08.098Z,25.80
2018-08-28T11:43:39.940Z,25.80
2018-08-28T11:46:11.721Z,25.80
2018-08-28T11:48:43.586Z,25.70
2018-08-28T11:51:15.561Z,25.60
2018-08-28T11:53:47.281Z,25.50
2018-08-28T11:56:18.963Z,25.40
2018-08-28T11:58:50.850Z,25.20
2018-08-28T12:01:22.507Z,25.30
2018-08-28T12:03:54.422Z,25.50
2018-08-28T12:06:26.232Z,25.60
2018-08-28T12:08:57.940Z,25.70
2018-08-28T12:11:29.848Z,25.80
2018-08-28T12:14:01.482Z,25.90
2018-08-28T12:16:33.229Z,26.10
2018-08-28T12:19:05.073Z,26.30
2018-08-28T12:21:36.769Z,26.40
2018-08-28T12:24:08.138Z,26.50
2018-08-28T12:26:39.882Z,26.50
2018-08-28T12:29:11.697Z,26.30
2018-08-28T12:31:43.373Z,26.20
2018-08-28T12:34:15.128Z,26.20
2018-08-28T12:36:46.887Z,26.30
2018-08-28T12:39:18.736Z,26.40
2018-08-28T12:41:50.544Z,26.60
2018-08-28T12:44:22.283Z,26.60
2018-08-28T12:46:54.320Z,26.70
2018-08-28T12:49:26.035Z,26.70
2018-08-28T12:51:57.779Z,26.70
2018-08-28T12:54:29.501Z,26.80
2018-08-28T12:57:01.259Z,26.80
2018-08-28T12:59:33.196Z,26.70
2018-08-28T13:02:05.044Z,26.60
2018-08-28T13:04:36.665Z,26.50
2018-08-28T13:07:08.325Z,26.60
2018-08-28T13:09:40.093Z,26.60
2018-08-28T13:12:11.837Z,26.60
2018-08-28T13:14:43.704Z,26.60
2018-08-28T13:17:15.586Z,26.50
2018-08-28T13:19:47.441Z,26.60
2018-08-28T13:22:19.374Z,26.60
2018-08-28T13:24:51.263Z,26.60
2018-08-28T13:27:23.048Z,26.60
2018-08-28T13:29:54.875Z,26.80
2018-08-28T13:32:26.655Z,26.80
2018-08-28T13:34:58.365Z,26.90
2018-08-28T13:37:30.034Z,26.90
2018-08-28T13:40:01.871Z,26.90
2018-08-28T13:42:33.547Z,27.00
2018-08-28T13:45:05.313Z,27.00
2018-08-28T13:47:37.668Z,27.00
2018-08-28T13:50:09.524Z,26.80
2018-08-28T13:52:41.203Z,26.70
2018-08-28T13:55:12.966Z,26.70
2018-08-28T13:57:44.797Z,26.70
2018-08-28T14:00:16.822Z,26.70
2018-08-28T14:02:48.578Z,26.70
2018-08-28T14:05:20.385Z,26.60
2018-08-28T14:07:52.294Z,26.70
2018-08-28T14:10:24.041Z,26.70
2018-08-28T14:12:55.791Z,26.70
2018-08-28T14:15:27.437Z,26.80
2018-08-28T14:17:59.305Z,26.80
2018-08-28T14:20:31.234Z,26.70
2018-08-28T14:23:03.090Z,26.60
2018-08-28T14:25:34.890Z,26.60
2018-08-28T14:28:06.856Z,26.60
2018-08-28T14:30:38.684Z,26.60
2018-08-28T14:33:10.359Z,26.70
2018-08-28T14:35:42.175Z,26.70
2018-08-28T14:38:14.070Z,26.70
2018-08-28T14:40:45.731Z,26.60
2018-08-28T14:43:17.418Z,26.60
2018-08-28T14:45:49.166Z,26.40
2018-08-28T14:48:20.948Z,26.40
2018-08-28T14:50:52.666Z,26.40
2018-08-28T14:53:24.536Z,26.30
2018-08-28T14:55:56.327Z,26.40
2018-08-28T14:58:28.289Z,26.40
2018-08-28T15:01:00.082Z,26.30
2018-08-28T15:03:31.858Z,26.20
2018-08-28T15:06:03.549Z,26.10
2018-08-28T15:08:35.222Z,26.10
2018-08-28T15:11:07.137Z,26.00
2018-08-28T15:13:38.922Z,25.90
2018-08-28T15:16:10.576Z,25.90
2018-08-28T15:18:42.880Z,25.90
2018-08-28T15:21:14.597Z,25.90
2018-08-28T15:23:46.258Z,25.90
2018-08-28T15:26:18.015Z,25.90
2018-08-28T15:28:49.789Z,25.80
2018-08-28T15:31:21.449Z,25.70
2018-08-28T15:33:53.223Z,25.70
2018-08-28T15:36:25.075Z,25.70
2018-08-28T15:38:56.791Z,25.70
2018-08-28T15:41:28.578Z,25.70
2018-08-28T15:44:00.311Z,25.60
2018-08-28T15:46:31.991Z,25.60
2018-08-28T15:49:03.828Z,25.50
2018-08-28T15:51:35.780Z,25.40
2018-08-28T15:54:07.806Z,25.40
2018-08-28T15:56:39.551Z,25.40
2018-08-28T15:59:11.687Z,25.40
2018-08-28T16:01:43.462Z,25.40
2018-08-28T16:04:21.206Z,25.40
2018-08-28T16:06:53.401Z,25.40
2018-08-28T16:09:25.185Z,25.30
2018-08-28T16:11:56.939Z,25.30
2018-08-28T16:14:28.687Z,25.20
2018-08-28T16:17:00.662Z,25.20
2018-08-28T16:19:32.443Z,25.30
2018-08-28T16:22:04.991Z,25.20
2018-08-28T16:24:36.669Z,25.10
2018-08-28T16:27:08.518Z,25.00
2018-08-28T16:29:40.187Z,25.00
2018-08-28T16:32:11.937Z,25.00
2018-08-28T16:34:43.611Z,24.90
2018-08-28T16:37:15.265Z,24.80
2018-08-28T16:39:46.999Z,24.70
2018-08-28T16:42:18.784Z,24.70
2018-08-28T16:44:50.609Z,24.70
2018-08-28T16:47:22.626Z,24.60
2018-08-28T16:49:54.473Z,24.50
2018-08-28T16:52:26.354Z,24.50
2018-08-28T16:54:58.213Z,24.50
2018-08-28T16:57:30.038Z,24.40
2018-08-28T17:00:01.839Z,24.40
2018-08-28T17:02:33.564Z,24.20
2018-08-28T17:05:05.454Z,24.20
2018-08-28T17:07:37.085Z,24.10
2018-08-28T17:10:09.021Z,24.00
2018-08-28T17:12:40.841Z,24.00
2018-08-28T17:15:12.752Z,23.90
2018-08-28T17:17:44.511Z,23.80
2018-08-28T17:20:16.319Z,23.80
2018-08-28T17:22:48.026Z,23.80
2018-08-28T17:25:19.738Z,23.60
2018-08-28T17:27:51.542Z,23.60
2018-08-28T17:30:23.217Z,23.50
2018-08-28T17:32:54.957Z,23.40
2018-08-28T17:35:26.742Z,23.40
2018-08-28T17:37:58.482Z,23.30
2018-08-28T17:40:30.361Z,23.20
2018-08-28T17:43:02.093Z,23.10
2018-08-28T17:45:33.879Z,23.00
2018-08-28T17:48:05.677Z,22.90
2018-08-28T17:50:37.573Z,22.80
2018-08-28T17:53:09.346Z,22.80
2018-08-28T17:55:41.119Z,22.70
2018-08-28T17:58:12.857Z,22.60
2018-08-28T18:00:44.517Z,22.50
2018-08-28T18:03:16.268Z,22.50
2018-08-28T18:05:47.948Z,22.40
2018-08-28T18:08:19.613Z,22.30
2018-08-28T18:10:51.434Z,22.20
2018-08-28T18:13:23.093Z,22.20
2018-08-28T18:15:54.781Z,22.00
2018-08-28T18:18:26.639Z,22.00
2018-08-28T18:20:58.370Z,21.90
2018-08-28T18:23:30.061Z,21.80
2018-08-28T18:26:01.901Z,21.70
2018-08-28T18:28:33.566Z,21.50
2018-08-28T18:31:05.414Z,21.50
2018-08-28T18:33:37.086Z,21.40
2018-08-28T18:36:08.956Z,21.20
2018-08-28T18:38:40.691Z,21.10
2018-08-28T18:41:12.631Z,20.90
2018-08-28T18:43:44.206Z,20.70
2018-08-28T18:46:15.882Z,20.50
2018-08-28T18:48:47.618Z,20.50
2018-08-28T18:51:19.281Z,20.30
2018-08-28T18:53:51.061Z,20.10
2018-08-28T18:56:22.902Z,19.90
2018-08-28T18:58:54.573Z,19.90
2018-08-28T19:01:26.242Z,19.80
2018-08-28T19:03:58.070Z,19.80
2018-08-28T19:06:29.755Z,19.70
2018-08-28T19:09:01.543Z,19.60
2018-08-28T19:11:33.157Z,19.60
2018-08-28T19:14:05.033Z,19.60
2018-08-28T19:16:36.814Z,19.50
2018-08-28T19:19:10.029Z,19.50
2018-08-28T19:21:41.921Z,19.40
2018-08-28T19:24:13.831Z,19.40
2018-08-28T19:26:45.441Z,19.30
2018-08-28T19:29:17.222Z,19.30
2018-08-28T19:31:48.996Z,19.30
2018-08-28T19:34:20.712Z,19.30
2018-08-28T19:36:52.514Z,19.30
2018-08-28T19:39:24.144Z,19.20
2018-08-28T19:41:55.889Z,19.20
2018-08-28T19:44:27.754Z,19.10
2018-08-28T19:46:59.425Z,19.10
2018-08-28T19:49:31.190Z,19.10
2018-08-28T19:52:02.837Z,19.00
2018-08-28T19:54:34.701Z,19.00
2018-08-28T19:57:06.719Z,18.90
2018-08-28T19:59:38.396Z,18.90
2018-08-28T20:02:10.265Z,18.80
2018-08-28T20:04:42.048Z,18.70
2018-08-28T20:07:13.757Z,18.60
2018-08-28T20:09:45.497Z,18.60
2018-08-28T20:12:17.122Z,18.50
2018-08-28T20:14:48.862Z,18.40
2018-08-28T20:17:20.696Z,18.30
2018-08-28T20:19:52.505Z,18.20
2018-08-28T20:22:24.337Z,18.10
2018-08-28T20:24:56.116Z,17.90
2018-08-28T20:27:27.884Z,17.70
2018-08-28T20:29:59.724Z,17.50
2018-08-28T20:32:31.479Z,17.30
2018-08-28T20:35:03.265Z,17.20
2018-08-28T20:37:34.999Z,17.20
2018-08-28T20:40:07.100Z,17.30
2018-08-28T20:42:38.745Z,17.40
2018-08-28T20:45:10.680Z,17.40
2018-08-28T20:47:42.592Z,17.40
2018-08-28T20:50:14.386Z,17.30
2018-08-28T20:52:46.265Z,17.30
2018-08-28T20:55:18.074Z,17.30
2018-08-28T20:57:49.836Z,17.20
2018-08-28T21:00:21.461Z,17.20
2018-08-28T21:02:53.125Z,17.20
2018-08-28T21:05:28.197Z,17.20
2018-08-28T21:08:01.155Z,17.20
2018-08-28T21:10:33.085Z,17.10
2018-08-28T21:13:05.093Z,17.00
2018-08-28T21:15:36.933Z,17.00
2018-08-28T21:18:08.870Z,16.90
2018-08-28T21:20:40.540Z,16.80
2018-08-28T21:23:12.322Z,16.70
2018-08-28T21:25:44.053Z,16.60
2018-08-28T21:28:15.732Z,16.60
2018-08-28T21:30:47.600Z,16.50
2018-08-28T21:33:19.639Z,16.50
2018-08-28T21:35:51.611Z,16.40
2018-08-28T21:38:23.454Z,16.30
2018-08-28T21:40:55.208Z,16.30
2018-08-28T21:43:26.972Z,16.30
2018-08-28T21:45:58.778Z,16.20
2018-08-28T21:48:30.415Z,16.10
2018-08-28T21:51:02.251Z,16.10
2018-08-28T21:53:34.161Z,16.00
2018-08-28T21:56:05.894Z,16.10
2018-08-28T21:58:37.620Z,16.00
2018-08-28T22:01:12.435Z,16.00
2018-08-28T22:03:44.321Z,16.00
2018-08-28T22:06:21.064Z,16.00
2018-08-28T22:08:52.762Z,15.90
2018-08-28T22:11:24.636Z,15.90
2018-08-28T22:13:56.382Z,15.80
2018-08-28T22:16:27.946Z,15.80
2018-08-28T22:18:59.886Z,15.70
2018-08-28T22:21:31.667Z,15.70
2018-08-28T22:24:03.408Z,15.60
2018-08-28T22:26:35.321Z,15.70
2018-08-28T22:29:07.082Z,15.70
2018-08-28T22:31:38.821Z,15.60
2018-08-28T22:34:10.748Z,15.60
2018-08-28T22:36:42.553Z,15.50
2018-08-28T22:39:14.202Z,15.50
2018-08-28T22:41:46.144Z,15.50
2018-08-28T22:44:17.789Z,15.40
2018-08-28T22:46:49.473Z,15.30
2018-08-28T22:49:21.254Z,15.20
2018-08-28T22:51:52.968Z,15.10
2018-08-28T22:54:24.741Z,15.00
2018-08-28T22:56:56.532Z,14.90
2018-08-28T22:59:28.289Z,15.00
2018-08-28T23:02:00.029Z,15.00
2018-08-28T23:04:32.012Z,15.10
2018-08-28T23:07:03.885Z,15.20
2018-08-28T23:09:35.510Z,15.20
2018-08-28T23:12:07.263Z,15.10
2018-08-28T23:14:39.000Z,15.00
2018-08-28T23:17:10.792Z,15.00
2018-08-28T23:19:42.622Z,15.00
2018-08-28T23:22:14.401Z,15.00
2018-08-28T23:24:46.058Z,15.00
2018-08-28T23:27:17.993Z,15.00
2018-08-28T23:29:49.762Z,15.00
2018-08-28T23:32:21.537Z,14.90
2018-08-28T23:34:53.276Z,14.80
2018-08-28T23:37:25.028Z,14.70
2018-08-28T23:39:56.750Z,14.60
2018-08-28T23:42:28.762Z,14.60
2018-08-28T23:45:00.514Z,14.50
2018-08-28T23:47:32.288Z,14.40
2018-08-28T23:50:04.052Z,14.30
2018-08-28T23:52:35.897Z,14.30
2018-08-28T23:55:07.753Z,14.20
2018-08-28T23:57:39.522Z,14.20
